Time;durP1;ratioP1;P1;durP2;ratioP2;P2;SDS_P1;SDS_P2;PMS_P1;PMS_P2;Temp;Humidity;BMP_temperature;BMP_pressure;BME280_temperature;BME280_humidity;BME280_pressure;Samples;Min_cycle;Max_cycle;Signal;HPM_P1;HPM_P2
2023/07/29 00:02:23;;;;;;;2.35;1.35;;;;;;;17.59;87.91;96370.63;4918977;29;20120;-80
2023/07/29 00:04:51;;;;;;;1.13;1.02;;;;;;;17.57;87.79;96367.41;4918783;29;20052;-80
2023/07/29 00:07:18;;;;;;;1.38;1.27;;;;;;;17.57;87.56;96362.13;4922270;29;20067;-78
2023/07/29 00:09:46;;;;;;;0.77;0.77;;;;;;;17.59;87.29;96364.56;4922720;29;20051;-79
2023/07/29 00:12:13;;;;;;;0.95;0.95;;;;;;;17.61;87.38;96368.56;4922029;29;20089;-80
2023/07/29 00:14:41;;;;;;;1.88;0.88;;;;;;;17.61;87.14;96355.38;4922021;29;20532;-79
2023/07/29 00:17:09;;;;;;;0.98;0.90;;;;;;;17.63;87.32;96360.41;4922005;29;20517;-77
2023/07/29 00:19:38;;;;;;;0.82;0.70;;;;;;;17.62;86.79;96364.91;4922851;29;20048;-79
2023/07/29 00:22:08;;;;;;;1.25;0.70;;;;;;;17.63;86.81;96366.50;4921744;29;20086;-80
2023/07/29 00:24:36;;;;;;;1.10;1.00;;;;;;;17.63;87.08;96353.31;4921787;29;20048;-79
2023/07/29 00:27:03;;;;;;;1.00;0.90;;;;;;;17.63;87.08;96350.66;4923369;29;20049;-77
2023/07/29 00:29:31;;;;;;;3.80;0.90;;;;;;;17.62;87.20;96341.16;4926623;29;20108;-79
2023/07/29 00:31:59;;;;;;;3.40;0.80;;;;;;;17.59;87.09;96338.97;4927824;29;20052;-78
2023/07/29 00:34:26;;;;;;;1.50;0.93;;;;;;;17.57;86.97;96337.59;4928298;29;20055;-77
2023/07/29 00:36:55;;;;;;;0.93;0.93;;;;;;;17.52;87.13;96337.50;4927016;29;20059;-78
2023/07/29 00:39:23;;;;;;;1.42;0.80;;;;;;;17.48;86.96;96337.16;4926733;29;20048;-78
2023/07/29 00:41:51;;;;;;;0.95;0.75;;;;;;;17.44;87.12;96355.25;4927062;29;20052;-77
2023/07/29 00:44:19;;;;;;;1.00;0.90;;;;;;;17.41;87.61;96358.38;4926240;29;20108;-78
2023/07/29 00:46:47;;;;;;;2.00;1.33;;;;;;;17.43;88.13;96358.16;4926310;29;20052;-79
2023/07/29 00:49:14;;;;;;;2.80;0.90;;;;;;;17.43;87.66;96350.25;4926908;29;20139;-77
2023/07/29 00:51:42;;;;;;;1.45;0.70;;;;;;;17.42;87.32;96353.91;4925919;29;20109;-77
2023/07/29 00:54:11;;;;;;;3.53;1.17;;;;;;;17.41;87.22;96349.66;4924949;29;20108;-78
2023/07/29 00:56:39;;;;;;;1.35;1.05;;;;;;;17.39;87.23;96349.91;4925444;29;20056;-77
2023/07/29 00:59:07;;;;;;;3.33;0.90;;;;;;;17.36;87.18;96342.47;4924955;29;20060;-78
2023/07/29 01:01:35;;;;;;;1.52;0.80;;;;;;;17.34;87.18;96330.50;4924118;29;20048;-77
2023/07/29 01:04:02;;;;;;;0.93;0.80;;;;;;;17.34;87.07;96330.50;4925365;29;20056;-79
2023/07/29 01:06:40;;;;;;;1.20;1.00;;;;;;;17.30;87.09;96338.91;4925682;29;20508;-77
2023/07/29 01:09:20;;;;;;;5.05;0.98;;;;;;;17.29;87.06;96341.75;4923303;29;20052;-77
2023/07/29 01:12:02;;;;;;;1.30;0.60;;;;;;;17.28;87.04;96332.25;4925140;29;20090;-78
2023/07/29 01:14:37;;;;;;;0.60;0.60;;;;;;;17.26;86.87;96329.84;4924378;29;20473;-77
2023/07/29 01:17:08;;;;;;;0.98;0.70;;;;;;;17.26;86.59;96329.84;4924186;29;20067;-78
2023/07/29 01:19:54;;;;;;;0.70;0.60;;;;;;;17.23;86.58;96319.78;4923001;29;20476;-77
2023/07/29 01:22:22;;;;;;;4.05;1.05;;;;;;;17.19;86.67;96317.84;4922719;29;20476;-77
2023/07/29 01:24:51;;;;;;;4.50;0.98;;;;;;;17.17;87.06;96319.88;4922753;29;20117;-76
2023/07/29 01:27:18;;;;;;;1.35;0.75;;;;;;;17.15;87.14;96320.13;4924823;29;20075;-78
2023/07/29 01:29:46;;;;;;;1.75;0.70;;;;;;;17.15;87.48;96317.47;4924015;29;20056;-77
2023/07/29 01:32:20;;;;;;;5.72;0.80;;;;;;;17.17;87.29;96304.06;4924004;29;20500;-78
2023/07/29 01:34:53;;;;;;;2.58;0.80;;;;;;;17.18;87.30;96293.28;4923345;29;20081;-78
2023/07/29 01:37:26;;;;;;;1.83;0.60;;;;;;;17.19;87.21;96297.53;4922264;29;20482;-78
2023/07/29 01:39:58;;;;;;;1.65;0.85;;;;;;;17.20;87.17;96293.06;4921593;29;20068;-76
2023/07/29 01:42:26;;;;;;;2.03;1.02;;;;;;;17.18;86.91;96290.66;4921713;29;20500;-77
2023/07/29 01:44:57;;;;;;;4.45;0.70;;;;;;;17.18;87.34;96290.66;4922493;29;20257;-79
2023/07/29 01:47:24;;;;;;;0.95;0.75;;;;;;;17.18;87.32;96301.19;4923327;29;20064;-76
2023/07/29 01:49:52;;;;;;;1.42;0.80;;;;;;;17.18;87.30;96300.41;4923028;29;20055;-80
2023/07/29 01:52:20;;;;;;;0.90;0.90;;;;;;;17.17;87.49;96301.44;4922694;29;20053;-78
2023/07/29 01:54:47;;;;;;;1.45;0.75;;;;;;;17.15;87.34;96299.03;4922595;29;20049;-76
2023/07/29 01:57:16;;;;;;;0.65;0.65;;;;;;;17.14;87.32;96300.03;4922988;29;20706;-77
2023/07/29 01:59:44;;;;;;;1.15;1.05;;;;;;;17.15;87.30;96285.84;4921588;29;20086;-79
2023/07/29 02:02:12;;;;;;;1.20;0.77;;;;;;;17.15;87.26;96295.59;4921243;29;20059;-77
2023/07/29 02:04:40;;;;;;;1.70;0.68;;;;;;;17.14;87.53;96284.22;4922288;29;20095;-78
2023/07/29 02:07:07;;;;;;;3.83;0.82;;;;;;;17.15;87.46;96288.47;4922636;29;20405;-77
2023/07/29 02:09:35;;;;;;;1.23;0.68;;;;;;;17.16;87.46;96281.38;4921136;29;20432;-77
2023/07/29 02:12:03;;;;;;;0.82;0.82;;;;;;;17.16;87.44;96276.91;4920568;29;20056;-81
2023/07/29 02:14:32;;;;;;;1.83;0.88;;;;;;;17.16;87.56;96287.44;4921143;29;20144;-79
2023/07/29 02:17:00;;;;;;;2.00;1.10;;;;;;;17.17;87.40;96283.00;4920573;29;20082;-76
2023/07/29 02:19:27;;;;;;;1.88;0.77;;;;;;;17.16;87.52;96284.81;4921368;29;20048;-76
2023/07/29 02:21:55;;;;;;;2.65;0.80;;;;;;;17.16;87.40;96287.44;4921432;29;20084;-76
2023/07/29 02:24:23;;;;;;;1.30;0.60;;;;;;;17.18;87.52;96285.38;4921080;29;20481;-78
2023/07/29 02:26:50;;;;;;;3.97;0.70;;;;;;;17.20;87.60;96298.34;4921229;29;20112;-77
2023/07/29 02:29:18;;;;;;;0.82;0.80;;;;;;;17.21;87.41;96290.19;4921224;29;20117;-75
2023/07/29 02:31:47;;;;;;;2.40;0.85;;;;;;;17.22;87.53;96297.06;4920596;29;20722;-78
2023/07/29 02:34:15;;;;;;;1.30;0.60;;;;;;;17.25;87.51;96301.91;4921489;29;20056;-77
2023/07/29 02:36:42;;;;;;;2.17;0.85;;;;;;;17.27;87.64;96299.84;4920785;29;20048;-76
2023/07/29 02:39:10;;;;;;;5.82;1.20;;;;;;;17.30;87.63;96298.56;4921157;29;20088;-76
2023/07/29 02:41:38;;;;;;;0.77;0.77;;;;;;;17.35;87.55;96293.38;4920963;29;20056;-77
2023/07/29 02:44:06;;;;;;;1.75;0.85;;;;;;;17.40;87.37;96290.06;4921184;29;20112;-76
2023/07/29 02:46:34;;;;;;;2.33;0.68;;;;;;;17.46;86.77;96291.75;4921208;29;20048;-76
2023/07/29 02:49:04;;;;;;;3.95;0.77;;;;;;;17.49;86.94;96283.38;4921350;29;20080;-79
2023/07/29 02:51:32;;;;;;;1.20;0.80;;;;;;;17.52;86.88;96285.56;4921047;29;20572;-79
2023/07/29 02:53:59;;;;;;;1.02;0.65;;;;;;;17.54;86.70;96278.22;4921875;29;20058;-78
2023/07/29 02:56:27;;;;;;;1.52;0.68;;;;;;;17.57;86.76;96279.59;4921184;29;20056;-78
2023/07/29 02:58:55;;;;;;;1.40;0.90;;;;;;;17.58;86.64;96276.72;4921249;29;20571;-80
2023/07/29 03:01:24;;;;;;;3.10;1.10;;;;;;;17.59;86.61;96273.03;4921766;29;20048;-78
2023/07/29 03:03:52;;;;;;;3.05;1.50;;;;;;;17.58;86.36;96263.53;4921319;29;20088;-78
2023/07/29 03:06:21;;;;;;;1.35;1.05;;;;;;;17.56;86.38;96262.97;4921563;29;20135;-77
2023/07/29 03:08:49;;;;;;;3.97;1.05;;;;;;;17.55;86.47;96268.47;4920938;29;20044;-78
2023/07/29 03:11:17;;;;;;;2.70;1.10;;;;;;;17.53;86.53;96268.69;4920749;29;20123;-77
2023/07/29 03:13:45;;;;;;;3.58;1.15;;;;;;;17.53;86.47;96263.41;4921367;29;20052;-77
2023/07/29 03:16:14;;;;;;;3.60;1.80;;;;;;;17.51;86.44;96262.84;4920699;29;20058;-80
2023/07/29 03:18:43;;;;;;;3.25;1.60;;;;;;;17.50;86.59;96258.63;4919924;29;20095;-77
2023/07/29 03:21:11;;;;;;;2.88;1.20;;;;;;;17.48;86.52;96261.47;4921126;29;20056;-79
2023/07/29 03:23:40;;;;;;;2.85;0.80;;;;;;;17.46;86.62;96260.91;4921662;29;20052;-78
2023/07/29 03:26:10;;;;;;;1.50;0.90;;;;;;;17.45;86.70;96255.91;4921877;29;20234;-77
2023/07/29 03:28:40;;;;;;;3.08;1.63;;;;;;;17.41;86.66;96247.63;4922883;29;20060;-79
2023/07/29 03:31:07;;;;;;;1.30;1.00;;;;;;;17.38;86.71;96247.28;4922349;29;20068;-78
2023/07/29 03:33:35;;;;;;;1.52;1.00;;;;;;;17.36;86.70;96244.09;4921854;29;20063;-80
2023/07/29 03:36:03;;;;;;;2.35;1.23;;;;;;;17.35;87.02;96253.03;4922666;29;20099;-80
2023/07/29 03:38:32;;;;;;;2.92;1.35;;;;;;;17.33;87.00;96247.19;4942522;23;20135;-78
2023/07/29 03:41:02;;;;;;;3.90;1.50;;;;;;;17.31;86.90;96236.88;4924206;29;20401;-78
2023/07/29 03:43:30;;;;;;;2.50;1.40;;;;;;;17.30;86.95;96236.09;4925527;29;20119;-78
2023/07/29 03:45:57;;;;;;;2.72;1.42;;;;;;;17.29;87.04;96234.50;4924197;29;20060;-78
2023/07/29 03:48:25;;;;;;;2.35;1.35;;;;;;;17.28;87.15;96226.81;4925355;29;20111;-78
2023/07/29 03:50:53;;;;;;;3.53;1.60;;;;;;;17.24;87.22;96221.19;4924052;29;20052;-78
2023/07/29 03:53:20;;;;;;;4.28;1.60;;;;;;;17.23;87.28;96219.59;4924024;29;20111;-78
2023/07/29 03:55:49;;;;;;;2.13;1.55;;;;;;;17.24;87.63;96221.19;4922490;29;20072;-78
2023/07/29 03:58:18;;;;;;;3.65;1.50;;;;;;;17.25;87.46;96214.09;4923569;29;20171;-78
2023/07/29 04:00:46;;;;;;;5.00;1.55;;;;;;;17.25;87.84;96214.91;4920997;29;20425;-78
2023/07/29 04:03:14;;;;;;;3.13;1.50;;;;;;;17.27;87.69;96215.47;4924490;29;20082;-78
2023/07/29 04:05:41;;;;;;;3.67;2.28;;;;;;;17.27;87.88;96220.75;4928643;29;20080;-78
2023/07/29 04:08:09;;;;;;;2.92;1.50;;;;;;;17.28;87.56;96227.59;4923769;29;20103;-78
2023/07/29 04:10:37;;;;;;;2.58;1.50;;;;;;;17.28;87.52;96224.19;4928157;29;20465;-78
2023/07/29 04:13:05;;;;;;;2.10;1.30;;;;;;;17.30;87.56;96230.03;4926674;29;20074;-78
2023/07/29 04:15:34;;;;;;;1.25;1.15;;;;;;;17.32;87.47;96221.84;4927703;29;20052;-78
2023/07/29 04:18:02;;;;;;;3.20;1.58;;;;;;;17.31;87.50;96215.78;4926145;29;20096;-78
2023/07/29 04:20:29;;;;;;;2.92;1.70;;;;;;;17.32;87.60;96221.84;4926711;29;20055;-78
2023/07/29 04:22:57;;;;;;;3.50;1.45;;;;;;;17.36;87.66;96223.00;4923844;29;20082;-78
2023/07/29 04:25:25;;;;;;;1.40;1.30;;;;;;;17.37;87.29;96208.78;4932424;29;20128;-78
2023/07/29 04:27:52;;;;;;;4.00;1.52;;;;;;;17.39;87.32;96214.63;4937352;29;20107;-78
2023/07/29 04:30:20;;;;;;;2.05;1.40;;;;;;;17.41;87.16;96213.38;4929198;29;20052;-78
2023/07/29 04:32:50;;;;;;;3.25;1.38;;;;;;;17.45;87.07;96216.34;4927007;29;20059;-78
2023/07/29 04:35:17;;;;;;;2.08;1.30;;;;;;;17.46;86.73;96217.94;4923778;29;20056;-78
2023/07/29 04:37:47;;;;;;;2.25;1.60;;;;;;;17.50;86.84;96221.69;4926372;29;20073;-78
2023/07/29 04:40:15;;;;;;;4.00;1.50;;;;;;;17.52;86.59;96224.13;4927593;29;20060;-78
2023/07/29 04:42:43;;;;;;;4.60;1.65;;;;;;;17.56;86.15;96222.59;4925870;29;20055;-78
2023/07/29 04:45:11;;;;;;;2.72;1.65;;;;;;;17.58;86.08;96223.16;4936719;29;20052;-78
2023/07/29 04:47:39;;;;;;;2.25;1.52;;;;;;;17.57;86.00;96209.16;4926495;29;20104;-78
2023/07/29 04:50:09;;;;;;;2.42;1.60;;;;;;;17.59;85.95;96222.94;4926951;29;20078;-78
2023/07/29 04:52:37;;;;;;;5.22;1.90;;;;;;;17.61;86.07;96214.78;4923739;29;20087;-78
2023/07/29 04:55:05;;;;;;;2.30;1.45;;;;;;;17.64;86.02;96220.38;4927264;29;20060;-78
2023/07/29 04:57:32;;;;;;;2.28;1.15;;;;;;;17.65;85.80;96222.00;4926691;29;20108;-78
2023/07/29 05:00:00;;;;;;;2.17;1.65;;;;;;;17.66;85.50;96220.16;4927333;29;20045;-78
2023/07/29 05:02:28;;;;;;;1.63;1.52;;;;;;;17.64;85.61;96222.22;4926767;29;20052;-78
2023/07/29 05:04:55;;;;;;;1.95;1.85;;;;;;;17.62;85.56;96211.91;4925883;29;20063;-78
2023/07/29 05:07:24;;;;;;;2.47;1.63;;;;;;;17.62;85.61;96211.91;4926633;29;20421;-78
2023/07/29 05:09:52;;;;;;;5.78;1.92;;;;;;;17.62;85.83;96217.19;4927011;29;20059;-78
2023/07/29 05:12:20;;;;;;;2.17;1.70;;;;;;;17.62;85.73;96219.00;4925581;29;20051;-78
2023/07/29 05:14:47;;;;;;;4.22;1.65;;;;;;;17.62;85.91;96216.38;4926537;29;20052;-78
2023/07/29 05:17:15;;;;;;;3.58;1.52;;;;;;;17.63;85.84;96213.50;4925480;29;20048;-78
2023/07/29 05:19:43;;;;;;;1.77;1.30;;;;;;;17.69;85.62;96211.78;4926962;29;20104;-78
2023/07/29 05:22:11;;;;;;;1.60;1.50;;;;;;;17.74;85.68;96209.22;4926338;29;20054;-78
2023/07/29 05:24:40;;;;;;;3.05;1.70;;;;;;;17.79;85.53;96208.50;4926653;29;20147;-78
2023/07/29 05:27:08;;;;;;;3.28;1.58;;;;;;;17.84;85.18;96205.97;4925173;29;20052;-78
2023/07/29 05:29:36;;;;;;;2.95;1.33;;;;;;;17.88;85.13;96215.03;4925952;29;20056;-78
2023/07/29 05:32:04;;;;;;;2.42;1.17;;;;;;;17.92;84.58;96216.16;4927206;29;20108;-78
2023/07/29 05:34:31;;;;;;;3.78;1.60;;;;;;;17.99;84.35;96221.28;4922524;29;20044;-78
2023/07/29 05:36:59;;;;;;;3.35;1.42;;;;;;;18.04;84.16;96214.28;4926002;29;20077;-78
2023/07/29 05:39:27;;;;;;;2.13;1.40;;;;;;;18.11;84.33;96240.50;4921976;29;20056;-78
2023/07/29 05:41:56;;;;;;;1.95;1.40;;;;;;;18.17;85.37;96254.56;4921873;29;20048;-78
2023/07/29 05:44:23;;;;;;;3.60;1.40;;;;;;;18.19;84.68;96257.78;4926812;29;20088;-78
2023/07/29 05:46:51;;;;;;;3.85;1.90;;;;;;;18.22;84.51;96252.84;4926646;29;20083;-78
2023/07/29 05:49:19;;;;;;;2.00;1.88;;;;;;;18.25;84.72;96251.56;4925922;29;20074;-78
2023/07/29 05:51:46;;;;;;;2.47;1.80;;;;;;;18.27;84.90;96265.31;4926288;29;20432;-78
2023/07/29 05:54:14;;;;;;;3.40;1.90;;;;;;;18.31;85.85;96282.28;4926494;29;20056;-78
2023/07/29 05:56:42;;;;;;;2.08;1.60;;;;;;;18.34;86.50;96287.09;4926317;29;20501;-78
2023/07/29 05:59:11;;;;;;;7.72;1.98;;;;;;;18.35;86.86;96299.25;4922195;29;20111;-79
2023/07/29 06:01:38;;;;;;;6.55;2.38;;;;;;;18.36;87.56;96303.50;4928658;29;20056;-78
2023/07/29 06:04:06;;;;;;;4.00;2.00;;;;;;;18.37;87.88;96312.22;4925611;29;20056;-78
2023/07/29 06:06:34;;;;;;;4.57;2.35;;;;;;;18.37;87.36;96305.09;4925522;29;20052;-78
2023/07/29 06:09:02;;;;;;;5.28;2.28;;;;;;;18.35;87.21;96282.63;4925986;29;20083;-78
2023/07/29 06:11:29;;;;;;;2.97;2.17;;;;;;;18.34;87.62;96271.25;4926633;29;20075;-78
2023/07/29 06:13:57;;;;;;;3.63;2.25;;;;;;;18.34;87.93;96271.25;4926068;29;20076;-78
2023/07/29 06:16:26;;;;;;;3.47;1.67;;;;;;;18.33;88.16;96265.16;4926365;29;20086;-78
2023/07/29 06:18:54;;;;;;;2.08;1.70;;;;;;;18.32;88.44;96270.66;4926836;29;20048;-79
2023/07/29 06:21:22;;;;;;;4.85;1.88;;;;;;;18.32;89.03;96274.13;4923251;29;20076;-78
2023/07/29 06:23:49;;;;;;;5.70;2.33;;;;;;;18.33;89.52;96270.44;4926316;29;20532;-78
2023/07/29 06:26:17;;;;;;;3.78;1.92;;;;;;;18.34;89.74;96260.69;4925885;29;20044;-78
2023/07/29 06:28:44;;;;;;;3.55;1.92;;;;;;;18.31;89.36;96250.59;4923810;29;20044;-78
2023/07/29 06:31:12;;;;;;;3.75;2.10;;;;;;;18.28;89.67;96256.38;4927478;29;20318;-78
2023/07/29 06:33:41;;;;;;;4.22;2.25;;;;;;;18.25;89.42;96246.28;4924982;29;20111;-78
2023/07/29 06:36:09;;;;;;;2.90;1.95;;;;;;;18.21;89.33;96242.50;4926836;29;20048;-78
2023/07/29 06:38:36;;;;;;;6.93;2.40;;;;;;;18.19;89.25;96241.94;4926325;29;20116;-78
2023/07/29 06:41:04;;;;;;;4.03;2.13;;;;;;;18.17;89.47;96246.66;4926847;29;20048;-78
2023/07/29 06:43:32;;;;;;;5.18;1.98;;;;;;;18.14;89.80;96247.16;4926318;29;20052;-78
2023/07/29 06:46:00;;;;;;;3.33;2.10;;;;;;;18.15;90.04;96251.38;4926758;29;20504;-78
2023/07/29 06:48:27;;;;;;;3.83;1.80;;;;;;;18.15;90.04;96246.91;4927150;29;20058;-78
2023/07/29 06:51:00;;;;;;;3.95;1.80;;;;;;;18.19;90.52;96249.88;4927029;29;20084;-78
2023/07/29 06:53:28;;;;;;;5.47;2.65;;;;;;;18.24;90.61;96236.75;4926842;29;20052;-78
2023/07/29 06:55:56;;;;;;;5.00;2.08;;;;;;;18.28;90.51;96245.81;4923581;29;20075;-78
2023/07/29 06:58:23;;;;;;;4.28;2.28;;;;;;;18.33;90.53;96248.53;4926312;29;20052;-78
2023/07/29 07:00:51;;;;;;;4.80;2.22;;;;;;;18.41;90.61;96244.66;4925992;29;20048;-78
2023/07/29 07:03:21;;;;;;;5.82;2.22;;;;;;;18.46;90.05;96237.66;4926038;29;20052;-78
2023/07/29 07:05:49;;;;;;;2.25;1.63;;;;;;;18.50;89.72;96236.13;4922952;29;20428;-78
2023/07/29 07:08:19;;;;;;;1.92;1.60;;;;;;;18.57;88.91;96240.44;4921842;29;20048;-78
2023/07/29 07:10:47;;;;;;;2.60;2.40;;;;;;;18.66;89.46;96246.91;4922112;29;20494;-78
2023/07/29 07:13:15;;;;;;;3.45;2.35;;;;;;;18.75;89.61;96248.09;4926669;29;20052;-78
2023/07/29 07:15:43;;;;;;;3.78;1.65;;;;;;;18.83;88.11;96242.44;4926851;29;20048;-78
2023/07/29 07:18:10;;;;;;;2.88;2.25;;;;;;;18.91;88.12;96234.13;4925702;29;20059;-78
2023/07/29 07:20:38;;;;;;;2.92;1.27;;;;;;;18.96;87.05;96230.75;4928691;29;20059;-78
2023/07/29 07:23:08;;;;;;;1.63;1.52;;;;;;;19.03;86.47;96236.63;4932749;29;20055;-78
2023/07/29 07:25:37;;;;;;;2.78;1.15;;;;;;;19.09;85.92;96229.59;4927009;29;20048;-78
2023/07/29 07:28:05;;;;;;;2.38;1.80;;;;;;;19.16;86.09;96232.06;4923427;29;20104;-78
2023/07/29 07:30:32;;;;;;;3.05;1.50;;;;;;;19.22;85.87;96233.69;4925848;29;20500;-78
2023/07/29 07:33:00;;;;;;;2.28;1.83;;;;;;;19.24;84.83;96232.44;4926302;29;20124;-78
2023/07/29 07:35:28;;;;;;;3.97;1.73;;;;;;;19.23;84.60;96228.16;4926797;29;20055;-78
2023/07/29 07:37:55;;;;;;;2.72;1.63;;;;;;;19.28;84.94;96232.72;4925895;29;20059;-78
2023/07/29 07:40:23;;;;;;;2.55;1.60;;;;;;;19.30;84.50;96236.72;4926476;29;20052;-78
2023/07/29 07:42:52;;;;;;;5.70;4.10;;;;;;;19.34;84.31;96244.97;4927041;29;20056;-78
2023/07/29 07:45:20;;;;;;;2.97;1.80;;;;;;;19.35;83.89;96249.22;4926738;29;20123;-78
2023/07/29 07:47:48;;;;;;;6.13;1.70;;;;;;;19.37;83.96;96254.25;4928913;29;20052;-78
2023/07/29 07:50:16;;;;;;;2.15;1.33;;;;;;;19.36;84.45;96256.09;4933366;29;20052;-78
2023/07/29 07:52:44;;;;;;;4.10;1.67;;;;;;;19.39;85.02;96270.66;4934998;29;20087;-78
2023/07/29 07:55:11;;;;;;;3.67;2.75;;;;;;;19.40;85.93;96282.88;4934843;29;20056;-78
2023/07/29 07:57:39;;;;;;;2.25;2.00;;;;;;;19.41;86.23;96300.31;4927159;29;20470;-78
2023/07/29 08:00:10;;;;;;;4.47;2.35;;;;;;;19.42;87.21;96312.53;4926672;29;20080;-78
2023/07/29 08:02:38;;;;;;;5.28;2.45;;;;;;;19.41;87.64;96322.28;4926691;29;20059;-78
2023/07/29 08:05:06;;;;;;;2.97;1.80;;;;;;;19.40;87.86;96325.19;4923941;29;20083;-78
2023/07/29 08:07:34;;;;;;;3.28;1.50;;;;;;;19.39;88.60;96318.28;4928379;29;20104;-78
2023/07/29 08:10:01;;;;;;;3.55;1.48;;;;;;;19.35;88.22;96321.44;4926114;29;20060;-78
2023/07/29 08:12:29;;;;;;;1.60;1.27;;;;;;;19.32;87.23;96318.47;4928361;29;20059;-78
2023/07/29 08:14:57;;;;;;;2.63;1.23;;;;;;;19.27;87.28;96316.53;4923657;29;20048;-78
2023/07/29 08:17:26;;;;;;;2.30;1.42;;;;;;;19.23;87.62;96318.06;4925616;29;20056;-78
2023/07/29 08:19:54;;;;;;;3.60;1.80;;;;;;;19.21;88.39;96312.22;4927779;29;20060;-78
2023/07/29 08:22:21;;;;;;;4.95;1.25;;;;;;;19.18;87.47;96301.34;4927786;29;20575;-78
2023/07/29 08:24:49;;;;;;;2.33;1.27;;;;;;;19.14;87.85;96301.81;4926134;29;20079;-78
2023/07/29 08:27:16;;;;;;;2.05;0.95;;;;;;;19.12;87.07;96297.81;4928090;29;20048;-78
2023/07/29 08:29:44;;;;;;;2.15;0.90;;;;;;;19.09;86.03;96288.53;4922838;29;20078;-78
2023/07/29 08:32:12;;;;;;;2.10;1.27;;;;;;;19.11;86.22;96296.22;4922187;29;20056;-78
2023/07/29 08:34:41;;;;;;;1.85;1.17;;;;;;;19.14;87.00;96306.31;4922329;29;20056;-78
2023/07/29 08:37:08;;;;;;;1.05;0.95;;;;;;;19.18;86.75;96290.78;4922460;29;20078;-78
2023/07/29 08:39:36;;;;;;;1.88;0.90;;;;;;;19.21;85.98;96299.00;4926899;29;20476;-78
2023/07/29 08:42:09;;;;;;;1.10;1.00;;;;;;;19.24;85.64;96290.59;4923306;29;20052;-78
2023/07/29 08:44:42;;;;;;;2.55;1.25;;;;;;;19.30;85.08;96289.59;4926026;29;20127;-78
2023/07/29 08:47:09;;;;;;;;;;;;;;;19.39;85.02;96278.59;4926828;29;20052;-78
2023/07/29 08:49:38;;;;;;;0.60;0.60;;;;;;;19.45;83.64;96278.41;4924440;29;19977;-78
2023/07/29 08:52:08;;;;;;;0.20;0.20;;;;;;;19.51;81.22;96274.78;4929353;29;20056;-78
2023/07/29 08:54:36;;;;;;;1.42;0.50;;;;;;;19.58;81.36;96273.81;4926380;29;20052;-78
2023/07/29 08:57:04;;;;;;;0.60;0.50;;;;;;;19.68;82.52;96284.53;4929066;29;20044;-78
2023/07/29 08:59:33;;;;;;;1.13;0.70;;;;;;;19.79;82.95;96288.91;4925964;29;20052;-78
2023/07/29 09:02:01;;;;;;;0.90;0.60;;;;;;;19.86;82.34;96292.16;4930481;29;20052;-78
2023/07/29 09:04:29;;;;;;;2.10;0.68;;;;;;;19.91;82.76;96299.34;4926583;29;20075;-78
2023/07/29 09:06:57;;;;;;;0.75;0.60;;;;;;;19.93;81.53;96302.56;4925994;29;20048;-78
2023/07/29 09:09:26;;;;;;;0.63;0.40;;;;;;;19.95;82.17;96305.75;4926736;29;20468;-78
2023/07/29 09:11:54;;;;;;;1.48;0.70;;;;;;;20.02;82.32;96294.97;4928608;29;20044;-78
2023/07/29 09:14:22;;;;;;;1.65;0.95;;;;;;;20.16;82.60;96294.34;4926615;29;20501;-78
2023/07/29 09:16:49;;;;;;;4.82;0.80;;;;;;;20.35;82.21;96289.47;4931206;29;20123;-78
2023/07/29 09:19:17;;;;;;;2.30;0.60;;;;;;;20.56;80.67;96290.44;4930242;29;20177;-78
2023/07/29 09:21:48;;;;;;;1.63;0.98;;;;;;;20.77;79.95;96302.03;4938147;29;20056;-78
2023/07/29 09:24:18;;;;;;;1.80;0.60;;;;;;;20.94;79.68;96295.78;4926486;29;20059;-78
2023/07/29 09:26:53;;;;;;;1.00;0.40;;;;;;;21.05;77.30;96307.25;4927022;29;20044;-78
2023/07/29 09:29:23;;;;;;;1.77;1.65;;;;;;;21.22;77.19;96301.78;4928411;29;20086;-78
2023/07/29 09:31:51;;;;;;;0.80;0.80;;;;;;;21.38;76.72;96303.47;4927180;29;20048;-78
2023/07/29 09:34:18;;;;;;;1.52;0.77;;;;;;;21.53;77.05;96292.16;4928117;29;20055;-78
2023/07/29 09:36:46;;;;;;;1.30;0.50;;;;;;;21.59;75.98;96294.56;4929164;29;20533;-78
2023/07/29 09:39:14;;;;;;;1.15;0.80;;;;;;;21.69;75.47;96288.53;4946246;23;20056;-76
2023/07/29 09:41:41;;;;;;;1.15;0.57;;;;;;;21.80;75.55;96287.50;4922096;29;20469;-80
2023/07/29 09:44:11;;;;;;;0.73;0.65;;;;;;;21.94;74.99;96287.00;4923253;29;20056;-76
2023/07/29 09:46:39;;;;;;;2.40;0.60;;;;;;;21.98;74.24;96282.75;4922701;29;20112;-80
2023/07/29 09:49:08;;;;;;;1.30;0.90;;;;;;;22.07;74.19;96291.81;4922747;29;20081;-76
2023/07/29 09:51:38;;;;;;;2.40;0.50;;;;;;;22.18;73.69;96282.78;4922057;29;20489;-78
2023/07/29 09:54:06;;;;;;;0.77;0.68;;;;;;;22.31;72.56;96280.72;4922740;29;20052;-78
2023/07/29 09:56:34;;;;;;;1.00;0.90;;;;;;;22.42;72.41;96274.34;4922261;29;20485;-77
2023/07/29 09:59:02;;;;;;;0.60;0.60;;;;;;;22.53;71.08;96275.16;4922253;29;20081;-78
2023/07/29 10:01:35;;;;;;;1.92;0.95;;;;;;;22.63;71.66;96267.97;4921525;29;20101;-79
2023/07/29 10:04:05;;;;;;;1.00;0.60;;;;;;;22.73;71.10;96269.03;4921841;29;20104;-79
2023/07/29 10:06:35;;;;;;;1.20;0.85;;;;;;;22.79;71.68;96274.06;4921641;29;20071;-77
2023/07/29 10:09:05;;;;;;;1.88;0.80;;;;;;;22.89;70.61;96272.47;4921895;29;20084;-77
2023/07/29 10:11:34;;;;;;;1.65;0.73;;;;;;;22.95;69.84;96269.53;4921174;29;20048;-78
2023/07/29 10:14:02;;;;;;;3.30;2.30;;;;;;;23.04;69.98;96272.47;4922181;29;20063;-78
2023/07/29 10:16:37;;;;;;;2.97;1.77;;;;;;;23.19;70.27;96276.97;4921703;29;20116;-78
2023/07/29 10:19:07;;;;;;;1.20;1.10;;;;;;;23.28;69.45;96262.03;4921825;29;20115;-77
2023/07/29 10:21:37;;;;;;;0.68;0.68;;;;;;;23.33;68.04;96248.72;4920784;29;20056;-78
2023/07/29 10:24:10;;;;;;;2.15;0.77;;;;;;;23.41;69.08;96242.81;4921076;29;20094;-79
2023/07/29 10:26:40;;;;;;;0.90;0.90;;;;;;;23.50;66.95;96255.56;4920698;29;20051;-77
2023/07/29 10:29:13;;;;;;;0.90;0.90;;;;;;;23.55;68.00;96264.34;4921171;29;20146;-78
2023/07/29 10:31:43;;;;;;;1.85;1.20;;;;;;;23.60;67.17;96269.63;4920082;29;20060;-77
2023/07/29 10:34:13;;;;;;;1.77;0.60;;;;;;;23.69;66.61;96261.88;4920279;29;20044;-77
2023/07/29 10:36:41;;;;;;;0.60;0.60;;;;;;;23.85;67.86;96266.09;4920177;29;20059;-78
2023/07/29 10:39:10;;;;;;;1.38;0.80;;;;;;;23.96;64.76;96272.13;4919853;29;20434;-78
2023/07/29 10:41:58;;;;;;;2.67;0.88;;;;;;;24.06;64.20;96277.41;4919246;29;20109;-78
2023/07/29 10:44:52;;;;;;;1.17;1.08;;;;;;;24.11;64.43;96271.25;4919672;29;20087;-78
2023/07/29 10:47:24;;;;;;;1.40;0.73;;;;;;;24.12;64.05;96272.03;4920711;29;20080;-77
2023/07/29 10:49:54;;;;;;;;;;;;;;;24.12;63.33;96259.53;4920959;29;20495;-77
2023/07/29 10:52:49;;;;;;;0.93;0.82;;;;;;;24.04;62.38;96265.44;4920637;29;19922;-77
2023/07/29 10:55:28;;;;;;;0.98;0.98;;;;;;;24.04;64.10;96262.78;4907690;29;20055;-79
2023/07/29 10:58:07;;;;;;;1.45;1.20;;;;;;;24.04;63.77;96258.25;4920851;29;20059;-79
2023/07/29 11:00:35;;;;;;;1.20;1.10;;;;;;;24.02;62.31;96246.28;4919803;29;20096;-78
2023/07/29 11:03:06;;;;;;;1.50;1.40;;;;;;;24.07;62.91;96240.91;4919380;29;20062;-77
2023/07/29 11:05:46;;;;;;;0.80;0.80;;;;;;;24.10;64.06;96251.03;4919673;29;20139;-77
2023/07/29 11:08:27;;;;;;;2.08;0.95;;;;;;;24.10;63.43;96248.38;4919722;29;20052;-78
2023/07/29 11:11:06;;;;;;;1.67;1.15;;;;;;;24.11;63.50;96262.47;4919913;29;20424;-78
2023/07/29 11:13:36;;;;;;;2.08;1.67;;;;;;;24.11;62.12;96275.78;4919247;29;20119;-79
2023/07/29 11:16:04;;;;;;;1.30;1.20;;;;;;;24.11;61.40;96295.25;4919970;29;20052;-78
2023/07/29 11:18:35;;;;;;;0.30;0.30;;;;;;;23.94;59.16;96287.63;4920519;29;20519;-78
2023/07/29 11:21:04;;;;;;;0.70;0.40;;;;;;;23.57;61.96;96285.34;4919771;29;20071;-78
2023/07/29 11:23:33;;;;;;;3.22;0.75;;;;;;;23.07;63.43;96311.84;4920270;29;20079;-77
2023/07/29 11:26:02;;;;;;;2.63;0.73;;;;;;;22.54;65.05;96296.16;4921324;29;20052;-78
2023/07/29 11:28:30;;;;;;;1.23;0.43;;;;;;;22.11;65.87;96311.47;4920384;29;20100;-78
2023/07/29 11:30:58;;;;;;;1.50;0.43;;;;;;;21.77;66.08;96316.41;4921087;29;20100;-77
2023/07/29 11:33:28;;;;;;;2.67;1.02;;;;;;;21.52;68.01;96306.50;4920887;29;20432;-78
2023/07/29 11:35:57;;;;;;;1.45;0.52;;;;;;;21.35;68.73;96320.69;4920512;29;20421;-77
2023/07/29 11:38:25;;;;;;;0.88;0.50;;;;;;;21.24;69.73;96316.41;4922862;29;20052;-80
2023/07/29 11:40:57;;;;;;;2.00;0.95;;;;;;;21.19;70.41;96319.03;4922058;29;20048;-78
2023/07/29 11:43:24;;;;;;;;;;;;;;;21.19;70.38;96327.00;4923212;29;20059;-81